Time;durP1;ratioP1;P1;durP2;ratioP2;P2;SDS_P1;SDS_P2;PMS_P1;PMS_P2;Temp;Humidity;BMP_temperature;BMP_pressure;BME280_temperature;BME280_humidity;BME280_pressure;Samples;Min_cycle;Max_cycle;Signal;HPM_P1;HPM_P2
2023/04/09 00:02:11;;;;;;;177.67;120.03;;;6.20;93.10;;;;;;4992548;28;20321;-90
2023/04/09 00:04:37;;;;;;;191.73;127.13;;;6.20;93.20;;;;;;4992271;28;20665;-90
2023/04/09 00:07:02;;;;;;;191.53;130.53;;;6.30;93.20;;;;;;4992380;28;20178;-91
2023/04/09 00:09:28;;;;;;;206.97;135.93;;;6.20;93.20;;;;;;4992349;28;20568;-91
2023/04/09 00:11:53;;;;;;;197.27;133.43;;;6.20;93.30;;;;;;4992151;28;20198;-91
2023/04/09 00:14:19;;;;;;;251.33;158.13;;;6.30;93.30;;;;;;4992567;28;20178;-90
2023/04/09 00:16:44;;;;;;;239.30;153.37;;;6.30;93.40;;;;;;4996284;28;20244;-91
2023/04/09 00:19:10;;;;;;;251.30;155.80;;;6.30;93.40;;;;;;4995982;28;20198;-91
2023/04/09 00:21:36;;;;;;;229.80;147.80;;;6.30;93.50;;;;;;4996026;28;20241;-90
2023/04/09 00:24:02;;;;;;;230.93;137.13;;;6.20;93.50;;;;;;4995993;28;20549;-90
2023/04/09 00:26:27;;;;;;;217.27;140.40;;;6.30;93.60;;;;;;4995794;28;20250;-91
2023/04/09 00:28:54;;;;;;;241.53;139.83;;;6.30;93.60;;;;;;4995700;28;20197;-91
2023/04/09 00:31:19;;;;;;;217.50;143.13;;;6.30;93.70;;;;;;4996899;28;20197;-91
2023/04/09 00:33:45;;;;;;;260.13;171.87;;;6.30;93.70;;;;;;4995810;28;20189;-91
2023/04/09 00:36:10;;;;;;;271.73;185.33;;;6.30;93.80;;;;;;4995794;28;20264;-91
2023/04/09 00:38:36;;;;;;;290.00;182.80;;;6.30;93.80;;;;;;4996819;28;20283;-91
2023/04/09 00:41:01;;;;;;;267.80;181.33;;;6.30;93.80;;;;;;4996866;28;20602;-91
2023/04/09 00:43:27;;;;;;;279.60;176.17;;;6.30;93.80;;;;;;4995894;28;20585;-91
2023/04/09 00:45:53;;;;;;;269.33;170.30;;;6.30;93.90;;;;;;4996146;28;20541;-91
2023/04/09 00:48:19;;;;;;;236.87;156.10;;;6.30;93.90;;;;;;4998769;28;20178;-91
2023/04/09 00:50:45;;;;;;;220.57;146.47;;;6.30;93.90;;;;;;4995740;28;20182;-92
2023/04/09 00:53:11;;;;;;;182.60;130.83;;;6.30;93.90;;;;;;4995523;28;20245;-91
2023/04/09 00:55:40;;;;;;;170.93;123.63;;;6.30;93.90;;;;;;4996639;28;20253;-91
2023/04/09 00:58:05;;;;;;;164.10;120.90;;;6.30;94.00;;;;;;4996488;28;20205;-92
2023/04/09 01:00:31;;;;;;;170.17;118.47;;;6.30;94.00;;;;;;4995277;28;20170;-92
2023/04/09 01:02:57;;;;;;;162.00;113.27;;;6.30;94.00;;;;;;4995244;28;20204;-91
2023/04/09 01:05:30;;;;;;;168.00;114.20;;;6.30;94.00;;;;;;4995311;28;20232;-91
2023/04/09 01:07:58;;;;;;;149.00;110.50;;;6.30;93.90;;;;;;4996486;28;20658;-92
2023/04/09 01:10:52;;;;;;;168.07;114.73;;;6.30;94.00;;;;;;4995153;28;20242;-91
2023/04/09 01:13:33;;;;;;;150.20;107.73;;;6.30;94.00;;;;;;4995595;28;20176;-92
2023/04/09 01:16:01;;;;;;;155.53;107.17;;;6.30;94.00;;;;;;4995433;28;20166;-92
2023/04/09 01:18:35;;;;;;;155.73;106.17;;;6.30;94.00;;;;;;4994873;28;20247;-91
2023/04/09 01:21:09;;;;;;;154.90;107.47;;;6.30;93.90;;;;;;4995434;28;20186;-92
2023/04/09 01:23:56;;;;;;;142.17;104.17;;;6.30;94.00;;;;;;4996202;28;20185;-92
2023/04/09 01:26:54;;;;;;;153.27;104.43;;;6.20;93.90;;;;;;4994728;28;20161;-92
2023/04/09 01:29:21;;;;;;;148.10;103.83;;;6.30;94.00;;;;;;4994770;28;20536;-92
2023/04/09 01:31:48;;;;;;;150.50;107.43;;;6.30;94.00;;;;;;4994524;28;20212;-91
2023/04/09 01:34:15;;;;;;;158.97;106.23;;;6.30;94.00;;;;;;4994871;28;20645;-91
2023/04/09 01:36:43;;;;;;;151.40;106.90;;;6.30;94.00;;;;;;4994610;28;20186;-91
2023/04/09 01:39:09;;;;;;;147.17;104.50;;;6.30;94.00;;;;;;4994352;28;20301;-90
2023/04/09 01:41:36;;;;;;;154.77;111.67;;;6.30;94.00;;;;;;4994615;28;20348;-91
2023/04/09 01:44:04;;;;;;;153.70;106.57;;;6.30;94.00;;;;;;4995718;28;20177;-90
2023/04/09 01:46:32;;;;;;;154.17;110.23;;;6.30;94.00;;;;;;4995419;28;20178;-90
2023/04/09 01:48:58;;;;;;;148.90;105.27;;;6.30;94.00;;;;;;4995227;28;20205;-90
2023/04/09 01:51:26;;;;;;;160.80;108.80;;;6.30;94.00;;;;;;4994351;28;20198;-90
2023/04/09 01:53:51;;;;;;;142.10;102.40;;;6.40;94.10;;;;;;4994659;28;20640;-91
2023/04/09 01:56:17;;;;;;;162.33;108.10;;;6.40;94.10;;;;;;4995374;28;20178;-91
2023/04/09 01:58:42;;;;;;;157.43;106.93;;;6.40;94.10;;;;;;4994243;28;20197;-91
2023/04/09 02:01:21;;;;;;;153.53;104.30;;;6.40;94.10;;;;;;4995305;28;20193;-91
2023/04/09 02:03:54;;;;;;;164.57;110.43;;;6.40;94.10;;;;;;4994124;28;20166;-90
2023/04/09 02:06:33;;;;;;;157.20;108.70;;;6.40;94.10;;;;;;4994207;28;20617;-91
2023/04/09 02:09:00;;;;;;;157.37;109.83;;;6.40;94.10;;;;;;4994199;28;20237;-90
2023/04/09 02:11:28;;;;;;;177.40;111.30;;;6.40;94.10;;;;;;4993848;28;20202;-91
2023/04/09 02:13:56;;;;;;;170.93;108.63;;;6.50;94.20;;;;;;4994163;28;20182;-90
2023/04/09 02:16:22;;;;;;;167.93;109.53;;;6.50;94.20;;;;;;4993956;28;20272;-91
2023/04/09 02:18:53;;;;;;;160.70;110.27;;;6.50;94.10;;;;;;4993930;28;20273;-90
2023/04/09 02:21:19;;;;;;;187.30;113.27;;;6.40;94.10;;;;;;4994966;28;20190;-91
2023/04/09 02:23:44;;;;;;;183.10;117.00;;;6.50;94.20;;;;;;4993748;28;20178;-90
2023/04/09 02:26:10;;;;;;;175.67;114.67;;;6.40;94.20;;;;;;4993658;28;20178;-91
2023/04/09 02:28:36;;;;;;;181.13;113.80;;;6.50;94.20;;;;;;4994991;28;20178;-91
2023/04/09 02:31:01;;;;;;;187.03;117.80;;;6.40;94.20;;;;;;4994545;28;20198;-91
2023/04/09 02:33:27;;;;;;;186.50;118.13;;;6.40;94.30;;;;;;4993745;28;20188;-91
2023/04/09 02:35:52;;;;;;;180.57;116.43;;;6.40;94.30;;;;;;4993848;28;20580;-91
2023/04/09 02:38:18;;;;;;;194.83;117.37;;;6.40;94.30;;;;;;4992639;28;20198;-91
2023/04/09 02:40:43;;;;;;;184.70;114.43;;;6.40;94.40;;;;;;4993223;28;20660;-91
2023/04/09 02:43:09;;;;;;;183.87;116.67;;;6.40;94.40;;;;;;4993394;28;20561;-91
2023/04/09 02:45:35;;;;;;;203.53;117.33;;;6.40;94.40;;;;;;4993468;28;20279;-91
2023/04/09 02:48:01;;;;;;;190.57;115.73;;;6.40;94.40;;;;;;4993656;28;20640;-91
2023/04/09 02:50:26;;;;;;;198.23;116.60;;;6.40;94.50;;;;;;4993373;28;20560;-91
2023/04/09 02:52:52;;;;;;;205.33;117.40;;;6.50;94.50;;;;;;4993126;28;20223;-91
2023/04/09 02:55:18;;;;;;;209.30;118.93;;;6.40;94.60;;;;;;4994349;28;20181;-91
2023/04/09 02:57:44;;;;;;;224.90;125.37;;;6.40;94.60;;;;;;4993250;28;20177;-91
2023/04/09 03:00:10;;;;;;;216.33;122.13;;;6.50;94.60;;;;;;4993381;28;20256;-91
2023/04/09 03:02:36;;;;;;;218.30;120.17;;;6.50;94.60;;;;;;4993331;28;20201;-91
2023/04/09 03:05:02;;;;;;;231.87;125.33;;;6.50;94.60;;;;;;4993147;28;20170;-91
2023/04/09 03:07:28;;;;;;;219.90;123.53;;;6.40;94.70;;;;;;4993274;28;20173;-91
2023/04/09 03:09:53;;;;;;;229.47;121.40;;;6.50;94.70;;;;;;4992952;28;20667;-91
2023/04/09 03:12:19;;;;;;;252.80;123.63;;;6.50;94.70;;;;;;4992942;28;20201;-91
2023/04/09 03:14:44;;;;;;;248.60;128.47;;;6.50;94.70;;;;;;4994018;28;20185;-91
2023/04/09 03:17:10;;;;;;;254.90;125.83;;;6.50;94.70;;;;;;4992875;28;20178;-91
2023/04/09 03:19:35;;;;;;;241.87;127.33;;;6.50;94.80;;;;;;4992677;28;20209;-91
2023/04/09 03:22:01;;;;;;;250.83;125.43;;;6.50;94.80;;;;;;4992700;28;20198;-91
2023/04/09 03:24:26;;;;;;;274.67;124.37;;;6.40;94.80;;;;;;4992733;28;20178;-91
2023/04/09 03:26:52;;;;;;;264.80;130.33;;;6.50;94.80;;;;;;4992893;28;20645;-91
2023/04/09 03:29:18;;;;;;;268.47;129.67;;;6.50;94.90;;;;;;4992761;28;20182;-92
2023/04/09 03:31:43;;;;;;;296.03;130.10;;;6.50;94.90;;;;;;4993043;28;20206;-91
2023/04/09 03:34:09;;;;;;;260.23;129.03;;;6.50;94.90;;;;;;4992972;28;20645;-91
2023/04/09 03:36:34;;;;;;;251.67;125.40;;;6.40;94.90;;;;;;4992747;28;20177;-92
2023/04/09 03:39:00;;;;;;;255.47;124.77;;;6.50;94.90;;;;;;4993848;28;20202;-92
2023/04/09 03:41:26;;;;;;;235.00;123.80;;;6.50;94.90;;;;;;4992667;28;20220;-92
2023/04/09 03:43:52;;;;;;;255.97;125.47;;;6.50;95.00;;;;;;4993743;28;20174;-91
2023/04/09 03:46:17;;;;;;;241.97;126.27;;;6.50;95.00;;;;;;4992622;28;20328;-91
2023/04/09 03:48:44;;;;;;;254.07;128.83;;;6.40;95.00;;;;;;4992540;28;20178;-91
2023/04/09 03:51:17;;;;;;;268.40;128.90;;;6.40;95.00;;;;;;4995922;28;20212;-91
2023/04/09 03:53:43;;;;;;;246.77;122.80;;;6.40;95.00;;;;;;4996583;28;20186;-91
2023/04/09 03:56:09;;;;;;;258.87;125.93;;;6.40;95.10;;;;;;4996574;28;20185;-91
2023/04/09 03:58:35;;;;;;;260.40;127.77;;;6.50;95.10;;;;;;4996560;28;20273;-92
2023/04/09 04:01:01;;;;;;;267.23;134.53;;;6.50;95.10;;;;;;4996590;28;20201;-92
2023/04/09 04:03:27;;;;;;;273.23;136.03;;;6.50;95.10;;;;;;4997756;28;20182;-91
2023/04/09 04:05:53;;;;;;;297.60;135.00;;;6.50;95.20;;;;;;4996446;28;20210;-92
2023/04/09 04:08:18;;;;;;;260.93;133.13;;;6.50;95.20;;;;;;4996383;28;20178;-91
2023/04/09 04:10:44;;;;;;;259.37;129.17;;;6.50;95.20;;;;;;4996258;28;20178;-92
2023/04/09 04:13:10;;;;;;;261.20;127.03;;;6.60;95.20;;;;;;4996188;28;20189;-92
2023/04/09 04:15:41;;;;;;;261.83;125.43;;;6.50;95.20;;;;;;4996129;28;20186;-91
2023/04/09 04:18:08;;;;;;;265.77;124.17;;;6.50;95.20;;;;;;4996078;28;20178;-92
2023/04/09 04:20:35;;;;;;;262.67;127.50;;;6.50;95.20;;;;;;4997246;28;20193;-92
2023/04/09 04:23:00;;;;;;;273.83;133.30;;;6.50;95.20;;;;;;4996040;28;20592;-91
2023/04/09 04:25:26;;;;;;;307.73;131.73;;;6.60;95.20;;;;;;4997171;28;20178;-91
2023/04/09 04:27:53;;;;;;;256.17;129.23;;;6.60;95.20;;;;;;4996006;28;20184;-91
2023/04/09 04:30:18;;;;;;;274.67;131.43;;;6.60;95.30;;;;;;4995814;28;20198;-92
2023/04/09 04:32:44;;;;;;;271.40;128.27;;;6.60;95.30;;;;;;4995625;28;20221;-92
2023/04/09 04:35:09;;;;;;;285.83;121.90;;;6.50;95.20;;;;;;4995734;28;20579;-91
2023/04/09 04:37:35;;;;;;;310.03;126.23;;;6.50;95.30;;;;;;4995805;28;20194;-92
2023/04/09 04:40:01;;;;;;;315.80;130.90;;;6.50;95.20;;;;;;4995567;28;20190;-91
2023/04/09 04:42:27;;;;;;;307.30;124.43;;;6.50;95.30;;;;;;4995337;28;20210;-91
2023/04/09 04:44:52;;;;;;;324.13;131.90;;;6.50;95.30;;;;;;4995511;28;20320;-91
2023/04/09 04:47:18;;;;;;;310.40;133.33;;;6.50;95.30;;;;;;4995621;28;20216;-91
2023/04/09 04:49:44;;;;;;;296.20;130.13;;;6.50;95.30;;;;;;4995488;28;20595;-92
2023/04/09 04:52:09;;;;;;;296.40;131.93;;;6.50;95.30;;;;;;4995383;28;20682;-91
2023/04/09 04:54:35;;;;;;;301.10;130.90;;;6.50;95.30;;;;;;4995356;28;20178;-91
2023/04/09 04:57:01;;;;;;;286.90;126.57;;;6.50;95.40;;;;;;4995384;28;20225;-91
2023/04/09 04:59:26;;;;;;;303.73;134.30;;;6.50;95.40;;;;;;4995250;28;20205;-92
2023/04/09 05:01:52;;;;;;;320.93;136.70;;;6.50;95.30;;;;;;4994169;28;20190;-92
2023/04/09 05:04:17;;;;;;;301.83;141.33;;;6.50;95.40;;;;;;4995335;28;20707;-91
2023/04/09 05:06:43;;;;;;;329.63;146.23;;;6.50;95.40;;;;;;4995158;28;20663;-91
2023/04/09 05:09:08;;;;;;;330.23;141.97;;;6.50;95.40;;;;;;4995145;28;20269;-91
2023/04/09 05:11:34;;;;;;;283.83;138.43;;;6.50;95.40;;;;;;4995040;28;20225;-91
2023/04/09 05:14:00;;;;;;;305.57;140.43;;;6.50;95.40;;;;;;4995025;28;20182;-92
2023/04/09 05:16:26;;;;;;;282.50;135.60;;;6.50;95.40;;;;;;4995822;28;20181;-91
2023/04/09 05:18:51;;;;;;;267.90;142.13;;;6.50;95.40;;;;;;4994828;28;20214;-92
2023/04/09 05:21:17;;;;;;;278.40;140.53;;;6.50;95.40;;;;;;4994980;28;20198;-91
2023/04/09 05:23:43;;;;;;;253.63;133.60;;;6.60;95.40;;;;;;4994905;28;20181;-91
2023/04/09 05:26:08;;;;;;;266.53;136.40;;;6.50;95.40;;;;;;4994757;28;20178;-92
2023/04/09 05:28:34;;;;;;;262.33;139.43;;;6.50;95.50;;;;;;4994872;28;20231;-91
2023/04/09 05:30:59;;;;;;;238.00;135.33;;;6.50;95.50;;;;;;4994706;28;20260;-91
2023/04/09 05:33:25;;;;;;;270.87;136.43;;;6.50;95.50;;;;;;4995245;28;20545;-91
2023/04/09 05:35:50;;;;;;;254.33;134.80;;;6.50;95.50;;;;;;4994667;28;20329;-91
2023/04/09 05:38:16;;;;;;;257.07;134.57;;;6.50;95.50;;;;;;4994465;28;20421;-92
2023/04/09 05:40:43;;;;;;;245.03;132.13;;;6.60;95.50;;;;;;4995620;28;20194;-91
2023/04/09 05:43:08;;;;;;;246.93;128.70;;;6.50;95.50;;;;;;4994495;28;20599;-91
2023/04/09 05:45:34;;;;;;;244.13;131.73;;;6.50;95.50;;;;;;4994438;28;20181;-91
2023/04/09 05:48:00;;;;;;;261.43;132.93;;;6.50;95.50;;;;;;4995678;28;20173;-91
2023/04/09 05:50:26;;;;;;;250.53;131.20;;;6.50;95.60;;;;;;4994441;28;20170;-91
2023/04/09 05:52:52;;;;;;;247.50;130.83;;;6.50;95.60;;;;;;4994526;28;20653;-90
2023/04/09 05:55:18;;;;;;;250.90;132.23;;;6.50;95.60;;;;;;4994498;28;20206;-92
2023/04/09 05:57:44;;;;;;;233.47;127.07;;;6.50;95.60;;;;;;4994270;28;20206;-92
2023/04/09 06:00:10;;;;;;;248.60;128.57;;;6.50;95.60;;;;;;4995344;28;20268;-91
2023/04/09 06:02:36;;;;;;;242.40;130.93;;;6.50;95.60;;;;;;4994174;28;20244;-91
2023/04/09 06:05:02;;;;;;;237.27;130.50;;;6.50;95.60;;;;;;4995293;28;20656;-91
2023/04/09 06:07:27;;;;;;;244.63;131.63;;;6.50;95.60;;;;;;4993996;28;20671;-91
2023/04/09 06:09:54;;;;;;;244.37;127.90;;;6.40;95.60;;;;;;4994069;28;20197;-91
2023/04/09 06:12:20;;;;;;;245.97;131.20;;;6.50;95.70;;;;;;4993842;28;20224;-91
2023/04/09 06:14:49;;;;;;;264.90;132.60;;;6.50;95.70;;;;;;4994106;28;20652;-91
2023/04/09 06:17:14;;;;;;;256.40;133.93;;;6.50;95.70;;;;;;4994011;28;20559;-91
2023/04/09 06:19:40;;;;;;;272.57;137.27;;;6.50;95.70;;;;;;4995040;28;20198;-91
2023/04/09 06:22:08;;;;;;;258.43;135.17;;;6.50;95.70;;;;;;4993782;28;20198;-91
2023/04/09 06:24:33;;;;;;;275.20;133.80;;;6.50;95.70;;;;;;4994113;28;20545;-91
2023/04/09 06:26:59;;;;;;;255.73;134.57;;;6.50;95.70;;;;;;4994857;28;20178;-91
2023/04/09 06:29:25;;;;;;;255.77;131.30;;;6.60;95.70;;;;;;4993682;28;20181;-91
2023/04/09 06:31:50;;;;;;;239.10;131.80;;;6.60;95.70;;;;;;4993452;28;20754;-91
2023/04/09 06:34:16;;;;;;;242.93;130.73;;;6.60;95.70;;;;;;4993664;28;20178;-91
2023/04/09 06:36:42;;;;;;;215.23;125.70;;;6.60;95.70;;;;;;4993495;28;20257;-91
2023/04/09 06:39:08;;;;;;;219.40;124.97;;;6.60;95.70;;;;;;4993735;28;20202;-92
2023/04/09 06:41:33;;;;;;;212.87;128.93;;;6.60;95.70;;;;;;4993278;28;20667;-91
2023/04/09 06:43:59;;;;;;;219.17;127.57;;;6.60;95.70;;;;;;4993358;28;20166;-92
2023/04/09 06:46:25;;;;;;;226.40;127.27;;;6.60;95.70;;;;;;4993383;28;20257;-91
2023/04/09 06:48:50;;;;;;;234.73;134.03;;;6.70;95.70;;;;;;4993317;28;20699;-91
2023/04/09 06:51:16;;;;;;;234.53;132.43;;;6.70;95.70;;;;;;4993352;28;20200;-91
2023/04/09 06:53:42;;;;;;;235.07;132.93;;;6.70;95.70;;;;;;4993394;28;20644;-91
2023/04/09 06:56:07;;;;;;;235.47;129.67;;;6.70;95.80;;;;;;4993430;28;20623;-92
2023/04/09 06:58:33;;;;;;;258.87;143.47;;;6.70;95.80;;;;;;4993207;28;20256;-91
2023/04/09 07:00:59;;;;;;;244.13;133.90;;;6.70;95.80;;;;;;4993041;28;20225;-91
2023/04/09 07:03:26;;;;;;;248.20;138.83;;;6.70;95.70;;;;;;4993082;28;20553;-91
2023/04/09 07:05:53;;;;;;;263.87;137.03;;;6.80;95.70;;;;;;4993104;28;20274;-92
2023/04/09 07:08:18;;;;;;;220.80;130.57;;;6.80;95.80;;;;;;4994148;28;20174;-91
2023/04/09 07:10:46;;;;;;;237.33;133.10;;;6.80;95.80;;;;;;4994096;28;20185;-91
2023/04/09 07:13:11;;;;;;;211.30;125.43;;;6.80;95.80;;;;;;4992949;28;20178;-91
2023/04/09 07:15:37;;;;;;;202.03;125.70;;;6.90;95.80;;;;;;4993023;28;20554;-91
2023/04/09 07:18:03;;;;;;;202.90;123.73;;;6.90;95.80;;;;;;4993858;28;20170;-91
2023/04/09 07:20:28;;;;;;;207.07;125.10;;;6.90;95.80;;;;;;4992753;28;20250;-92
2023/04/09 07:22:54;;;;;;;205.00;126.60;;;7.00;95.80;;;;;;4992787;28;20652;-91
2023/04/09 07:25:20;;;;;;;202.50;126.47;;;7.00;95.70;;;;;;4993654;28;20182;-91
2023/04/09 07:27:45;;;;;;;212.47;129.20;;;7.00;95.70;;;;;;4993090;28;20174;-91
2023/04/09 07:30:11;;;;;;;212.17;126.57;;;7.00;95.70;;;;;;4993926;28;20648;-91
2023/04/09 07:32:37;;;;;;;211.00;127.67;;;7.00;95.70;;;;;;4992948;28;20201;-92
2023/04/09 07:35:06;;;;;;;213.83;126.30;;;7.00;95.70;;;;;;4992695;28;20213;-91
2023/04/09 07:37:32;;;;;;;204.57;128.80;;;7.00;95.70;;;;;;4994433;28;20637;-91
2023/04/09 07:39:57;;;;;;;214.33;128.13;;;7.00;95.70;;;;;;4993541;28;20206;-91
2023/04/09 07:42:23;;;;;;;212.70;129.33;;;7.00;95.70;;;;;;4994449;28;20214;-90
2023/04/09 07:44:49;;;;;;;211.83;128.30;;;7.00;95.70;;;;;;4992840;28;20178;-91
2023/04/09 07:47:14;;;;;;;208.40;129.13;;;7.00;95.70;;;;;;4994078;28;20185;-91
2023/04/09 07:49:40;;;;;;;201.83;124.90;;;7.00;95.70;;;;;;4993971;28;20181;-91
2023/04/09 07:52:06;;;;;;;225.37;141.30;;;7.00;95.60;;;;;;4992683;28;20565;-91
2023/04/09 07:54:32;;;;;;;209.83;128.47;;;7.10;95.60;;;;;;4992645;28;20715;-91
2023/04/09 07:56:58;;;;;;;223.43;128.80;;;7.10;95.60;;;;;;4992385;28;20263;-91
2023/04/09 07:59:24;;;;;;;216.47;126.73;;;7.00;95.60;;;;;;4992338;28;20299;-91
2023/04/09 08:01:49;;;;;;;211.87;124.63;;;7.10;95.60;;;;;;4993197;28;20264;-91
2023/04/09 08:04:15;;;;;;;211.70;128.20;;;7.10;95.60;;;;;;4992412;28;20250;-91
2023/04/09 08:06:41;;;;;;;209.70;127.50;;;7.00;95.50;;;;;;4993787;28;20186;-91
2023/04/09 08:09:07;;;;;;;211.47;130.37;;;7.10;95.50;;;;;;4993676;28;20178;-90
2023/04/09 08:11:32;;;;;;;210.50;130.13;;;7.10;95.50;;;;;;4996047;28;20194;-89
2023/04/09 08:14:01;;;;;;;210.63;130.37;;;7.10;95.50;;;;;;4995397;28;20186;-90
2023/04/09 08:16:28;;;;;;;206.63;129.90;;;7.20;95.50;;;;;;4994621;28;20215;-91
2023/04/09 08:18:55;;;;;;;193.70;125.90;;;7.20;95.50;;;;;;4994624;28;20237;-90
2023/04/09 08:21:20;;;;;;;220.77;124.57;;;7.20;95.40;;;;;;4992944;28;20198;-90
2023/04/09 08:23:46;;;;;;;225.83;130.23;;;7.30;95.40;;;;;;4993506;28;20197;-92
2023/04/09 08:26:11;;;;;;;214.17;125.97;;;7.30;95.40;;;;;;4995120;28;20182;-90
2023/04/09 08:28:37;;;;;;;209.00;129.27;;;7.30;95.40;;;;;;4993971;28;20553;-91
2023/04/09 08:31:03;;;;;;;207.07;128.27;;;7.40;95.40;;;;;;4992910;28;20696;-91
2023/04/09 08:33:29;;;;;;;218.53;130.50;;;7.40;95.30;;;;;;4993813;28;20174;-91
2023/04/09 08:35:54;;;;;;;210.07;128.13;;;7.40;95.30;;;;;;4994447;28;20174;-90
2023/04/09 08:38:20;;;;;;;203.97;127.00;;;7.50;95.30;;;;;;5001822;28;20726;-92
2023/04/09 08:40:46;;;;;;;206.13;123.50;;;7.50;95.20;;;;;;4997769;28;20197;-90
2023/04/09 08:43:18;;;;;;;209.53;122.10;;;7.60;95.20;;;;;;4997394;28;20613;-91
2023/04/09 08:45:43;;;;;;;191.40;116.97;;;7.50;95.10;;;;;;4996927;28;20158;-90
2023/04/09 08:48:11;;;;;;;206.00;119.70;;;7.50;95.00;;;;;;4997710;28;20189;-91
2023/04/09 08:50:37;;;;;;;204.03;114.80;;;7.50;94.90;;;;;;4996792;28;20174;-91
2023/04/09 08:53:04;;;;;;;193.90;120.63;;;7.50;94.90;;;;;;4997107;28;20178;-91
2023/04/09 08:55:33;;;;;;;195.00;120.30;;;7.60;94.80;;;;;;4995910;28;20182;-92
2023/04/09 08:57:59;;;;;;;196.67;116.83;;;7.70;94.80;;;;;;4995539;28;20560;-92
2023/04/09 09:00:25;;;;;;;196.33;121.97;;;7.70;94.70;;;;;;4996560;28;20214;-92
2023/04/09 09:03:10;;;;;;;203.73;118.17;;;7.70;94.60;;;;;;4995396;28;20564;-92
2023/04/09 09:05:43;;;;;;;189.67;113.43;;;7.80;94.60;;;;;;4995314;28;20249;-92
2023/04/09 09:08:11;;;;;;;194.70;116.80;;;7.80;94.40;;;;;;4995464;28;20260;-92
2023/04/09 09:10:42;;;;;;;193.97;116.50;;;7.80;94.30;;;;;;4995060;28;20261;-92
2023/04/09 09:13:26;;;;;;;198.63;117.80;;;7.80;94.20;;;;;;4995379;28;20277;-92
2023/04/09 09:15:55;;;;;;;201.90;126.43;;;7.80;94.10;;;;;;4996433;28;20292;-92
2023/04/09 09:18:41;;;;;;;205.70;123.53;;;8.00;94.10;;;;;;4996326;28;20189;-91
2023/04/09 09:21:11;;;;;;;189.27;118.13;;;7.90;93.80;;;;;;4995769;28;20197;-92
2023/04/09 09:23:37;;;;;;;189.70;116.30;;;8.00;93.80;;;;;;4996056;28;20197;-91
2023/04/09 09:26:12;;;;;;;189.17;115.80;;;8.00;93.60;;;;;;4996264;28;20648;-91
2023/04/09 09:28:37;;;;;;;173.07;107.30;;;8.10;93.50;;;;;;4995742;28;20173;-90
2023/04/09 09:31:12;;;;;;;173.97;109.50;;;8.10;93.30;;;;;;4994748;28;20197;-90
2023/04/09 09:33:38;;;;;;;166.20;109.53;;;8.20;93.10;;;;;;4996111;28;20683;-90
2023/04/09 09:36:04;;;;;;;170.40;108.03;;;8.20;93.00;;;;;;4995926;28;20174;-91
2023/04/09 09:38:30;;;;;;;164.33;102.80;;;8.20;92.70;;;;;;4995740;28;20760;-91
2023/04/09 09:40:55;;;;;;;156.63;101.13;;;8.20;92.60;;;;;;4995902;28;20222;-91
2023/04/09 09:43:21;;;;;;;150.87;98.33;;;8.30;92.40;;;;;;4994730;28;20193;-90
2023/04/09 09:45:47;;;;;;;163.70;99.70;;;8.30;92.20;;;;;;4995769;28;20196;-91
2023/04/09 09:48:13;;;;;;;159.27;97.87;;;8.30;92.00;;;;;;4995580;28;20182;-91
2023/04/09 09:50:43;;;;;;;155.27;98.03;;;8.40;91.90;;;;;;4994546;28;20589;-91
2023/04/09 09:53:10;;;;;;;152.67;92.63;;;8.50;91.70;;;;;;4995889;28;20181;-91
2023/04/09 09:55:42;;;;;;;136.30;88.10;;;8.60;91.40;;;;;;4994476;28;20186;-91
2023/04/09 09:58:15;;;;;;;141.87;86.27;;;8.50;91.10;;;;;;4995381;28;20184;-91
2023/04/09 10:00:41;;;;;;;139.80;84.37;;;8.60;90.80;;;;;;4995658;28;20210;-92
2023/04/09 10:03:13;;;;;;;130.83;81.70;;;8.70;90.60;;;;;;4995680;28;20170;-91
2023/04/09 10:05:40;;;;;;;117.33;75.47;;;8.80;90.40;;;;;;4995795;28;20202;-91
2023/04/09 10:08:06;;;;;;;110.33;69.23;;;8.70;89.90;;;;;;4995614;28;20544;-91
2023/04/09 10:10:32;;;;;;;107.50;68.43;;;8.70;89.50;;;;;;4995420;28;20653;-91
2023/04/09 10:12:58;;;;;;;118.63;70.00;;;8.80;89.10;;;;;;4995233;28;20202;-91
2023/04/09 10:15:27;;;;;;;107.73;67.80;;;8.80;89.00;;;;;;4995300;28;20173;-90
2023/04/09 10:17:53;;;;;;;106.17;69.50;;;8.80;88.80;;;;;;4995141;28;20182;-91
2023/04/09 10:20:31;;;;;;;117.03;67.27;;;8.80;88.70;;;;;;4994977;28;20229;-91
2023/04/09 10:23:02;;;;;;;97.30;63.70;;;8.90;88.60;;;;;;4995021;28;20194;-92
2023/04/09 10:25:27;;;;;;;110.00;62.43;;;9.00;88.70;;;;;;4995079;28;20250;-91
2023/04/09 10:28:00;;;;;;;90.67;57.97;;;8.90;88.30;;;;;;4995208;28;20209;-91
2023/04/09 10:30:33;;;;;;;96.17;60.17;;;8.80;88.10;;;;;;4993775;28;20178;-91
2023/04/09 10:33:10;;;;;;;87.03;57.23;;;8.90;88.10;;;;;;4994893;28;20632;-92
2023/04/09 10:35:35;;;;;;;86.00;57.80;;;8.80;87.80;;;;;;4993697;28;20189;-91
2023/04/09 10:38:01;;;;;;;89.70;57.57;;;8.90;87.80;;;;;;4993535;28;20181;-91
2023/04/09 10:40:27;;;;;;;92.33;60.40;;;9.00;87.80;;;;;;4995340;28;20209;-91
2023/04/09 10:42:56;;;;;;;91.20;56.07;;;9.00;87.60;;;;;;4993719;28;20205;-91
2023/04/09 10:45:22;;;;;;;87.13;56.67;;;8.90;87.20;;;;;;4994833;28;20599;-91
2023/04/09 10:47:50;;;;;;;82.07;54.77;;;8.90;87.20;;;;;;4994882;28;20257;-90
2023/04/09 10:50:26;;;;;;;84.50;55.63;;;9.00;87.20;;;;;;4996463;28;20233;-94
2023/04/09 10:52:55;;;;;;;79.10;52.93;;;9.10;87.20;;;;;;4993738;28;20293;-91
2023/04/09 10:55:39;;;;;;;86.83;52.87;;;9.10;87.00;;;;;;4993484;28;20178;-92
2023/04/09 10:58:06;;;;;;;76.50;50.83;;;9.20;86.80;;;;;;4995856;28;20162;-91
2023/04/09 11:00:41;;;;;;;84.63;51.77;;;9.10;86.10;;;;;;4993698;28;20185;-89
2023/04/09 11:03:30;;;;;;;70.83;48.37;;;9.20;86.10;;;;;;4993239;28;20181;-89
2023/04/09 11:06:06;;;;;;;73.97;45.43;;;9.20;85.90;;;;;;4995672;28;20636;-91
2023/04/09 11:08:32;;;;;;;66.93;46.30;;;9.20;86.00;;;;;;4998401;28;20151;-90
2023/04/09 11:11:00;;;;;;;67.67;46.27;;;9.20;86.00;;;;;;5010241;28;20216;-91
2023/04/09 11:13:27;;;;;;;71.30;48.43;;;9.30;86.10;;;;;;5002951;28;20182;-91
2023/04/09 11:15:54;;;;;;;70.23;48.47;;;9.30;86.10;;;;;;5001601;28;20182;-90
2023/04/09 11:18:25;;;;;;;72.30;47.37;;;9.40;86.10;;;;;;4996440;28;20664;-90
2023/04/09 11:20:58;;;;;;;62.17;45.17;;;9.50;85.90;;;;;;4994137;28;20181;-91
2023/04/09 11:23:25;;;;;;;63.60;43.93;;;9.60;85.10;;;;;;4996076;28;20189;-90
2023/04/09 11:25:51;;;;;;;59.90;41.83;;;9.70;85.00;;;;;;4993354;28;20178;-92
2023/04/09 11:28:18;;;;;;;61.70;41.27;;;9.80;84.30;;;;;;4993346;28;20185;-91
2023/04/09 11:30:45;;;;;;;61.97;40.03;;;10.00;84.50;;;;;;4994106;28;20540;-91
2023/04/09 11:33:11;;;;;;;56.03;37.47;;;10.20;84.00;;;;;;4996134;28;20174;-91
2023/04/09 11:35:37;;;;;;;54.40;39.73;;;10.20;84.00;;;;;;4995647;28;20178;-91
2023/04/09 11:38:10;;;;;;;48.60;33.13;;;10.40;83.70;;;;;;4994417;28;20233;-91
2023/04/09 11:40:46;;;;;;;58.13;39.50;;;10.40;82.80;;;;;;4993041;28;20228;-91
2023/04/09 11:43:13;;;;;;;55.90;39.17;;;10.50;82.80;;;;;;5001334;28;20254;-91
2023/04/09 11:45:39;;;;;;;58.20;40.33;;;10.60;82.10;;;;;;5007848;28;20233;-91
2023/04/09 11:48:05;;;;;;;61.10;42.60;;;10.70;82.10;;;;;;5002193;28;20186;-91
2023/04/09 11:50:31;;;;;;;63.60;43.57;;;10.70;81.20;;;;;;4998480;28;20178;-91
2023/04/09 11:52:57;;;;;;;57.33;41.27;;;10.70;81.20;;;;;;4996218;28;20198;-91
2023/04/09 11:55:23;;;;;;;61.43;44.97;;;10.80;81.10;;;;;;5002965;28;20193;-91
2023/04/09 11:57:52;;;;;;;50.00;38.43;;;10.90;80.50;;;;;;5010350;28;20189;-91
2023/04/09 12:00:18;;;;;;;52.13;41.10;;;10.90;80.20;;;;;;4999595;28;20201;-91
2023/04/09 12:02:48;;;;;;;52.40;39.90;;;10.80;80.30;;;;;;5000160;28;20666;-91
2023/04/09 12:05:27;;;;;;;62.57;42.87;;;11.00;80.60;;;;;;4998540;28;20181;-91
2023/04/09 12:08:05;;;;;;;60.63;43.00;;;11.10;80.00;;;;;;5000804;28;20242;-92
2023/04/09 12:10:36;;;;;;;58.83;42.80;;;11.20;79.90;;;;;;4998369;28;20209;-91
2023/04/09 12:13:08;;;;;;;65.00;44.33;;;11.40;79.80;;;;;;5010045;28;20174;-90
2023/04/09 12:15:35;;;;;;;52.53;39.97;;;11.60;79.00;;;;;;4999305;28;20158;-91
2023/04/09 12:18:01;;;;;;;52.80;41.57;;;11.70;78.40;;;;;;4998014;28;20193;-91
2023/04/09 12:20:35;;;;;;;60.67;43.93;;;11.80;78.60;;;;;;4997859;28;20672;-92
2023/04/09 12:23:03;;;;;;;50.70;41.10;;;11.70;77.50;;;;;;4997521;28;20617;-91